Time;durP1;ratioP1;P1;durP2;ratioP2;P2;SDS_P1;SDS_P2;PMS_P1;PMS_P2;Temp;Humidity;BMP_temperature;BMP_pressure;BME280_temperature;BME280_humidity;BME280_pressure;Samples;Min_cycle;Max_cycle;Signal;HPM_P1;HPM_P2
2021/04/28 00:01:05;;;;;;;10.38;5.00;;;;;;;7.81;74.73;100924.14;1706620;83;21192;-70
2021/04/28 00:03:39;;;;;;;4.72;3.37;;;;;;;7.84;74.80;100922.14;1696517;83;21336;-70
2021/04/28 00:06:12;;;;;;;4.50;2.87;;;;;;;7.86;74.87;100917.66;1697052;83;21195;-70
2021/04/28 00:08:46;;;;;;;5.35;3.30;;;;;;;7.87;74.52;100921.11;1700084;83;21278;-70
2021/04/28 00:11:19;;;;;;;6.30;3.40;;;;;;;7.88;74.18;100924.91;1695134;83;21324;-69
2021/04/28 00:13:54;;;;;;;5.20;2.75;;;;;;;7.86;73.78;100919.42;1701925;83;21204;-70
2021/04/28 00:16:28;;;;;;;4.30;3.17;;;;;;;7.84;73.34;100916.09;1707545;83;21331;-69
2021/04/28 00:19:02;;;;;;;6.37;3.10;;;;;;;7.82;73.10;100919.27;1696864;83;21880;-71
2021/04/28 00:21:37;;;;;;;5.55;3.62;;;;;;;7.76;72.93;100925.72;1668130;83;21319;-70
2021/04/28 00:24:12;;;;;;;3.58;2.80;;;;;;;7.74;72.87;100930.70;1692143;83;21283;-71
2021/04/28 00:26:45;;;;;;;4.87;3.17;;;;;;;7.72;72.93;100928.63;1690181;83;21248;-70
2021/04/28 00:29:19;;;;;;;5.03;2.80;;;;;;;7.69;72.73;100921.04;1698930;83;21353;-69
2021/04/28 00:31:52;;;;;;;5.05;2.92;;;;;;;7.68;72.96;100916.75;1704117;83;21246;-69
2021/04/28 00:34:25;;;;;;;3.52;2.98;;;;;;;7.66;72.98;100916.86;1691809;83;21741;-70
2021/04/28 00:36:59;;;;;;;6.45;3.00;;;;;;;7.65;73.15;100922.16;1700661;82;21233;-70
2021/04/28 00:39:33;;;;;;;4.75;3.52;;;;;;;7.63;73.38;100931.85;1682689;83;21276;-70
2021/04/28 00:42:09;;;;;;;6.37;3.60;;;;;;;7.65;73.52;100936.48;1681002;83;21205;-70
2021/04/28 00:44:43;;;;;;;3.60;3.27;;;;;;;7.64;73.66;100923.95;1705891;83;21278;-70
2021/04/28 00:47:16;;;;;;;5.75;3.33;;;;;;;7.64;73.82;100923.11;1695040;83;21166;-69
2021/04/28 00:49:49;;;;;;;6.10;3.75;;;;;;;7.64;73.89;100928.33;1653304;83;21294;-69
2021/04/28 00:52:23;;;;;;;4.20;3.60;;;;;;;7.64;73.95;100933.54;1697036;83;21197;-70
2021/04/28 00:54:58;;;;;;;5.40;3.40;;;;;;;7.63;73.96;100935.30;1697940;83;21283;-70
2021/04/28 00:57:30;;;;;;;4.40;3.50;;;;;;;7.64;74.07;100929.63;1697686;83;21275;-70
2021/04/28 01:00:11;;;;;;;5.95;3.65;;;;;;;7.64;73.99;100932.23;1660394;84;21177;-69
2021/04/28 01:02:44;;;;;;;3.80;3.40;;;;;;;7.61;74.02;100926.75;1640671;86;21815;-69
2021/04/28 01:05:18;;;;;;;5.60;3.58;;;;;;;7.59;74.02;100931.23;1680254;83;21409;-70
2021/04/28 01:07:51;;;;;;;4.22;3.30;;;;;;;7.59;74.05;100927.79;1685983;83;21395;-70
2021/04/28 01:10:26;;;;;;;;;;;;;;;7.58;74.27;100939.98;1691607;83;21310;-71
2021/04/28 01:13:00;;;;;;;5.05;3.80;;;;;;;7.60;74.35;100936.80;1685498;83;20277;-70
2021/04/28 01:15:34;;;;;;;7.65;4.05;;;;;;;7.60;74.51;100935.95;1682754;84;21233;-70
2021/04/28 01:18:20;;;;;;;5.42;4.50;;;;;;;7.59;74.52;100933.00;1678983;83;21384;-70
2021/04/28 01:20:53;;;;;;;6.05;3.60;;;;;;;7.57;74.46;100933.08;1684666;83;21347;-70
2021/04/28 01:23:27;;;;;;;4.70;3.70;;;;;;;7.55;74.25;100940.66;1694991;84;21303;-70
2021/04/28 01:26:01;;;;;;;5.08;3.62;;;;;;;7.54;74.36;100945.49;1683840;83;21293;-69
2021/04/28 01:28:34;;;;;;;;;;;;;;;7.55;74.44;100951.08;1684779;83;21373;-70
2021/04/28 01:31:10;;;;;;;5.50;3.70;;;;;;;7.54;74.31;100946.33;1700696;84;20193;-70
2021/04/28 01:33:48;;;;;;;6.12;3.77;;;;;;;7.55;74.20;100945.87;1686293;84;21304;-70
2021/04/28 01:36:31;;;;;;;6.40;3.30;;;;;;;7.54;74.09;100953.30;1687812;83;21851;-70
2021/04/28 01:39:08;;;;;;;6.12;3.80;;;;;;;7.51;73.91;100952.20;1659168;84;21309;-70
2021/04/28 01:41:44;;;;;;;5.78;3.50;;;;;;;7.48;73.61;100955.83;1691493;83;21320;-69
2021/04/28 01:44:22;;;;;;;6.47;3.40;;;;;;;7.44;73.06;100956.52;1680920;83;21215;-70
2021/04/28 01:46:56;;;;;;;6.10;3.42;;;;;;;7.41;72.43;100962.37;1677099;84;21865;-69
2021/04/28 01:49:31;;;;;;;5.12;3.20;;;;;;;7.38;72.05;100967.77;1692595;84;21844;-70
2021/04/28 01:52:05;;;;;;;4.60;3.60;;;;;;;7.36;72.18;100968.34;1682563;83;21831;-70
2021/04/28 01:54:38;;;;;;;6.42;3.40;;;;;;;7.35;72.61;100971.90;1690655;83;21505;-70
2021/04/28 01:57:12;;;;;;;3.98;3.30;;;;;;;7.35;72.95;100979.25;1658183;83;21295;-70
2021/04/28 01:59:48;;;;;;;5.05;3.92;;;;;;;7.36;73.31;100977.45;1691787;84;21302;-70
2021/04/28 02:02:25;;;;;;;4.72;3.67;;;;;;;7.36;73.34;100972.25;1697789;83;21282;-70
2021/04/28 02:04:58;;;;;;;5.37;3.65;;;;;;;7.34;73.27;100970.22;1693925;83;21206;-70
2021/04/28 02:07:31;;;;;;;5.50;3.55;;;;;;;7.32;73.26;100972.93;1695395;83;21884;-70
2021/04/28 02:10:07;;;;;;;5.60;3.60;;;;;;;7.31;73.01;100979.06;1693819;83;21212;-70
2021/04/28 02:12:41;;;;;;;4.92;3.83;;;;;;;7.29;72.69;100974.42;1697173;84;22052;-69
2021/04/28 02:15:16;;;;;;;5.08;3.35;;;;;;;7.29;72.59;100980.93;1691763;84;21300;-69
2021/04/28 02:17:54;;;;;;;5.35;3.45;;;;;;;7.28;72.56;100977.13;1698275;83;21369;-70
2021/04/28 02:20:27;;;;;;;4.55;3.33;;;;;;;7.25;72.22;100985.13;1692894;83;21380;-69
2021/04/28 02:23:04;;;;;;;5.58;4.00;;;;;;;7.25;72.08;100985.97;1690542;84;21239;-69
2021/04/28 02:25:37;;;;;;;5.37;3.72;;;;;;;7.26;72.01;100992.02;1692217;83;21520;-70
2021/04/28 02:28:12;;;;;;;7.20;4.12;;;;;;;7.27;71.97;101001.48;1687743;83;21322;-70
2021/04/28 02:30:49;;;;;;;5.50;3.58;;;;;;;7.25;71.75;101005.50;1680942;83;21293;-69
2021/04/28 02:33:22;;;;;;;5.15;4.08;;;;;;;7.25;72.22;101007.27;1689409;83;21283;-70
2021/04/28 02:36:01;;;;;;;5.20;4.05;;;;;;;7.26;72.66;101014.16;1686387;83;21348;-70
2021/04/28 02:38:45;;;;;;;6.20;4.05;;;;;;;7.27;72.89;101014.05;1691140;83;21309;-70
2021/04/28 02:41:23;;;;;;;5.70;3.85;;;;;;;7.29;73.04;101014.79;1689243;84;21754;-70
2021/04/28 02:43:57;;;;;;;5.08;3.85;;;;;;;7.31;72.92;101012.08;1700335;83;21294;-70
2021/04/28 02:46:32;;;;;;;6.22;4.08;;;;;;;7.28;72.39;101011.80;1694504;83;21296;-72
2021/04/28 02:49:07;;;;;;;6.70;3.90;;;;;;;7.27;72.20;101017.12;1684538;83;21372;-71
2021/04/28 02:51:40;;;;;;;6.23;4.53;;;;;;;7.26;71.96;101017.58;1699264;83;22177;-72
2021/04/28 02:54:31;;;;;;;7.40;4.47;;;;;;;7.29;71.95;101021.77;1702709;83;21519;-72
2021/04/28 02:57:04;;;;;;;4.90;4.00;;;;;;;7.29;71.69;101017.85;1700562;84;21239;-72
2021/04/28 02:59:37;;;;;;;6.67;4.12;;;;;;;7.28;71.25;101020.92;1698581;84;22119;-70
2021/04/28 03:02:11;;;;;;;6.08;4.17;;;;;;;7.23;71.08;101021.70;1694989;83;21304;-71
2021/04/28 03:04:45;;;;;;;6.30;4.50;;;;;;;7.21;71.20;101031.34;1684540;84;21200;-69
2021/04/28 03:07:29;;;;;;;8.73;4.97;;;;;;;7.15;71.21;101031.75;1688341;83;21202;-71
2021/04/28 03:10:03;;;;;;;6.70;5.03;;;;;;;7.11;71.35;101034.64;1693751;83;21196;-72
2021/04/28 03:12:36;;;;;;;5.37;4.00;;;;;;;7.09;71.57;101045.62;1694745;84;21278;-71
2021/04/28 03:15:15;;;;;;;8.23;4.22;;;;;;;7.07;71.72;101048.30;1695979;83;21298;-70
2021/04/28 03:17:50;;;;;;;5.25;3.72;;;;;;;7.09;71.61;101043.86;1693270;83;21310;-71
2021/04/28 03:20:24;;;;;;;8.08;3.90;;;;;;;7.08;71.59;101045.23;1676123;84;21305;-71
2021/04/28 03:22:57;;;;;;;5.35;3.50;;;;;;;7.11;71.95;101044.59;1695986;84;21327;-71
2021/04/28 03:25:31;;;;;;;4.93;3.47;;;;;;;7.17;72.04;101044.20;1687359;83;21852;-71
2021/04/28 03:28:05;;;;;;;7.30;3.90;;;;;;;7.20;72.01;101048.38;1666661;83;21231;-70
2021/04/28 03:30:39;;;;;;;6.75;4.17;;;;;;;7.22;71.87;101042.16;1691132;83;21198;-69
2021/04/28 03:33:12;;;;;;;6.00;4.13;;;;;;;7.24;71.63;101052.46;1698012;83;21341;-69
2021/04/28 03:36:06;;;;;;;6.67;3.60;;;;;;;7.23;71.28;101052.11;1690764;84;21829;-70
2021/04/28 03:38:41;;;;;;;4.72;3.40;;;;;;;7.18;70.66;101055.00;1689694;84;21312;-70
2021/04/28 03:41:15;;;;;;;6.95;4.30;;;;;;;7.18;70.48;101057.61;1688996;83;21181;-69
2021/04/28 03:43:49;;;;;;;5.97;3.42;;;;;;;7.24;70.61;101057.67;1695281;84;21251;-69
2021/04/28 03:46:23;;;;;;;4.92;3.50;;;;;;;7.37;70.40;101064.64;1689697;83;21340;-70
2021/04/28 03:48:58;;;;;;;5.05;3.60;;;;;;;7.55;70.00;101063.93;1687394;83;23183;-70
2021/04/28 03:51:33;;;;;;;4.08;3.10;;;;;;;7.77;69.47;101060.80;1680771;83;21298;-70
2021/04/28 03:54:21;;;;;;;4.72;3.75;;;;;;;8.04;69.24;101061.16;1681887;83;21341;-69
2021/04/28 03:56:55;;;;;;;5.60;3.92;;;;;;;8.35;68.31;101060.46;1703832;83;21287;-70
2021/04/28 03:59:29;;;;;;;5.85;3.87;;;;;;;8.52;67.15;101061.02;1679464;83;21347;-70
2021/04/28 04:02:03;;;;;;;5.05;3.77;;;;;;;8.61;66.56;101066.07;1694423;83;21270;-69
2021/04/28 04:04:45;;;;;;;5.30;3.85;;;;;;;8.65;65.77;101067.06;1687873;83;21371;-69
2021/04/28 04:07:25;;;;;;;4.97;3.80;;;;;;;8.70;65.41;101065.44;1669610;83;21282;-71
2021/04/28 04:10:10;;;;;;;4.72;3.80;;;;;;;8.70;64.86;101061.52;1678997;84;21323;-70
2021/04/28 04:12:44;;;;;;;4.50;3.42;;;;;;;8.85;64.58;101065.70;1668434;83;21286;-68
2021/04/28 04:15:17;;;;;;;5.28;3.67;;;;;;;9.27;63.17;101072.33;1678530;83;21369;-67
2021/04/28 04:17:50;;;;;;;6.40;4.25;;;;;;;10.01;62.01;101066.92;1690122;84;21304;-68
2021/04/28 04:20:30;;;;;;;6.25;3.58;;;;;;;10.82;60.73;101067.28;1686582;83;21381;-69
2021/04/28 04:23:09;;;;;;;6.25;3.85;;;;;;;11.80;59.02;101069.58;1690205;83;21325;-68
2021/04/28 04:25:47;;;;;;;4.55;3.27;;;;;;;12.75;56.64;101074.73;1694913;83;21262;-68
2021/04/28 04:28:33;;;;;;;4.42;3.08;;;;;;;13.66;55.18;101078.63;1686629;83;21259;-68
2021/04/28 04:31:08;;;;;;;5.92;3.30;;;;;;;14.50;53.13;101074.84;1701992;83;21355;-69
2021/04/28 04:33:46;;;;;;;4.22;3.15;;;;;;;15.21;50.04;101083.91;1697175;83;21352;-69
2021/04/28 04:36:37;;;;;;;6.00;3.20;;;;;;;15.79;47.88;101079.66;1703397;83;21342;-69
2021/04/28 04:39:32;;;;;;;3.52;2.72;;;;;;;16.18;46.98;101085.00;1681524;84;21401;-69
2021/04/28 04:42:11;;;;;;;3.35;3.05;;;;;;;16.24;46.11;101088.34;1664073;84;21379;-69
2021/04/28 04:44:45;;;;;;;3.90;3.00;;;;;;;16.35;45.24;101086.80;1642311;84;21322;-70
2021/04/28 04:47:19;;;;;;;5.55;3.10;;;;;;;16.94;45.16;101086.56;1690022;84;22058;-72
2021/04/28 04:49:52;;;;;;;4.33;3.23;;;;;;;17.30;43.77;101093.36;1684502;84;22432;-72
2021/04/28 04:52:25;;;;;;;5.50;3.02;;;;;;;17.52;42.94;101095.48;1674199;84;21330;-73
2021/04/28 04:54:59;;;;;;;9.18;6.37;;;;;;;17.84;42.40;101094.22;1691888;83;21336;-74
2021/04/28 04:57:34;;;;;;;3.58;2.85;;;;;;;18.32;42.30;101097.42;1683885;83;22076;-70
2021/04/28 05:00:30;;;;;;;4.20;3.02;;;;;;;18.47;40.47;101105.09;1693156;83;21225;-75
2021/04/28 05:03:03;;;;;;;5.17;3.30;;;;;;;17.94;40.21;101108.65;1744251;81;21559;-72
2021/04/28 05:05:36;;;;;;;5.37;3.70;;;;;;;17.06;41.73;101111.28;1746590;80;21323;-74
2021/04/28 05:08:08;;;;;;;5.45;4.22;;;;;;;16.41;42.41;101119.70;1739645;80;21341;-76
2021/04/28 05:10:46;;;;;;;5.22;4.15;;;;;;;15.84;43.36;101120.48;1734470;80;21268;-74
2021/04/28 05:13:19;;;;;;;5.83;4.10;;;;;;;15.38;44.11;101126.67;1714399;81;21413;-74
2021/04/28 05:15:53;;;;;;;9.80;6.50;;;;;;;14.99;45.01;101122.53;1719958;80;21299;-76
2021/04/28 05:18:27;;;;;;;8.88;5.92;;;;;;;14.62;45.58;101127.73;1730247;81;21239;-79
2021/04/28 05:21:01;;;;;;;8.30;5.12;;;;;;;14.21;46.82;101124.04;1692689;81;21212;-78
2021/04/28 05:23:34;;;;;;;7.42;4.83;;;;;;;13.93;47.98;101132.27;1669780;83;21331;-78
2021/04/28 05:26:10;;;;;;;6.78;4.60;;;;;;;13.76;48.83;101140.82;1678859;82;21935;-78
2021/04/28 05:28:46;;;;;;;8.90;4.72;;;;;;;13.69;49.15;101135.75;1706467;81;22266;-75
2021/04/28 05:31:23;;;;;;;5.58;4.53;;;;;;;13.64;48.76;101141.05;1732825;81;21335;-78
2021/04/28 05:33:56;;;;;;;6.47;4.30;;;;;;;14.17;48.92;101143.25;1735407;81;22396;-77
2021/04/28 05:36:29;;;;;;;6.95;4.58;;;;;;;15.35;47.26;101144.14;1744594;80;21907;-82
2021/04/28 05:39:02;;;;;;;24.18;11.78;;;;;;;16.45;45.09;101138.25;1718827;81;22438;-81
2021/04/28 05:41:34;;;;;;;8.33;5.97;;;;;;;17.40;44.26;101140.39;1719574;81;21884;-81
2021/04/28 05:44:12;;;;;;;10.68;5.53;;;;;;;17.75;43.29;101147.34;1703962;82;21604;-80
2021/04/28 05:46:47;;;;;;;10.32;6.60;;;;;;;17.50;43.33;101146.41;1708126;82;21308;-75
2021/04/28 05:49:23;;;;;;;8.38;5.85;;;;;;;17.07;43.62;101152.63;1703786;82;21429;-78
2021/04/28 05:51:56;;;;;;;77.45;11.43;;;;;;;16.62;43.40;101152.78;1665796;83;21344;-75
2021/04/28 05:54:29;;;;;;;14.98;4.70;;;;;;;16.14;43.84;101165.03;1688164;82;22433;-82
2021/04/28 05:57:02;;;;;;;6.85;5.00;;;;;;;16.30;43.46;101164.38;1701213;82;21938;-79
2021/04/28 05:59:35;;;;;;;;;;;;;;;17.22;42.03;101164.27;1745100;79;21183;-79
2021/04/28 06:02:08;;;;;;;5.10;3.77;;;;;;;18.31;39.86;101158.57;1743902;80;20212;-82
2021/04/28 06:04:41;;;;;;;5.58;3.92;;;;;;;19.44;37.44;101157.98;1696069;82;21269;-81
2021/04/28 06:07:14;;;;;;;7.03;4.57;;;;;;;20.53;35.00;101165.38;1695271;83;21329;-79
2021/04/28 06:09:47;;;;;;;6.12;3.95;;;;;;;21.53;33.32;101169.40;1706626;82;21292;-83
2021/04/28 06:12:20;;;;;;;7.37;4.27;;;;;;;22.31;31.56;101173.02;1680450;83;21311;-79
2021/04/28 06:14:53;;;;;;;7.97;3.65;;;;;;;23.00;30.91;101168.72;1717974;81;22028;-78
2021/04/28 06:17:26;;;;;;;6.37;4.22;;;;;;;23.44;30.35;101172.43;1734079;80;21224;-86
2021/04/28 06:19:59;;;;;;;5.58;3.60;;;;;;;23.81;29.89;101178.66;1731214;81;21293;-79
2021/04/28 06:22:32;;;;;;;4.35;3.12;;;;;;;24.36;28.45;101177.61;1728170;80;21316;-79
2021/04/28 06:25:08;;;;;;;5.60;3.15;;;;;;;24.83;27.29;101173.16;1736154;80;21355;-77
2021/04/28 06:27:41;;;;;;;5.05;2.75;;;;;;;25.26;26.64;101172.48;1734845;81;21511;-76
2021/04/28 06:30:17;;;;;;;5.50;2.90;;;;;;;25.47;25.89;101174.11;1743462;80;21298;-76
2021/04/28 06:32:53;;;;;;;3.65;2.72;;;;;;;25.53;25.39;101174.59;1731547;79;21308;-78
2021/04/28 06:35:26;;;;;;;3.98;2.50;;;;;;;25.39;24.88;101175.13;1708116;81;21252;-80
2021/04/28 06:44:27;;;;;;;2.87;2.52;;;;;;;26.47;22.95;101184.98;1722201;82;21733;-80
2021/04/28 06:47:03;;;;;;;2.85;2.33;;;;;;;26.92;22.61;101182.16;1737289;81;21295;-81
2021/04/28 06:49:36;;;;;;;5.37;2.60;;;;;;;26.15;22.47;101187.88;1722425;81;21795;-80
2021/04/28 06:52:10;;;;;;;3.87;2.27;;;;;;;25.33;23.75;101186.70;1711822;80;22238;-78
2021/04/28 06:54:50;;;;;;;8.73;4.90;;;;;;;25.35;23.79;101194.01;1745673;80;21346;-76
2021/04/28 06:57:24;;;;;;;5.53;3.52;;;;;;;25.09;24.42;101198.58;1747526;80;21332;-79
2021/04/28 06:59:57;;;;;;;6.42;4.30;;;;;;;24.31;25.79;101194.81;1731256;80;21323;-79
2021/04/28 07:02:30;;;;;;;4.37;3.08;;;;;;;23.77;26.95;101202.82;1718695;81;21303;-79
2021/04/28 07:05:03;;;;;;;3.15;2.60;;;;;;;23.45;27.16;101194.94;1715612;81;21339;-77
2021/04/28 07:07:36;;;;;;;3.42;2.22;;;;;;;23.30;27.54;101201.40;1750837;80;21384;-78
2021/04/28 07:10:10;;;;;;;4.10;2.65;;;;;;;23.91;25.68;101201.84;1741566;80;21342;-78
2021/04/28 07:12:43;;;;;;;2.95;2.40;;;;;;;24.62;23.66;101198.25;1688199;82;21187;-74
2021/04/28 07:15:15;;;;;;;;;;;;;;;25.52;22.28;101194.92;1675508;83;21342;-76
2021/04/28 07:17:49;;;;;;;2.90;2.22;;;;;;;26.21;21.70;101201.26;1745622;80;20262;-81
2021/04/28 07:20:21;;;;;;;;;;;;;;;26.82;21.54;101201.47;1751347;79;21165;-79
2021/04/28 07:22:59;;;;;;;5.40;2.52;;;;;;;27.48;20.29;101200.36;1728379;81;20286;-80
2021/04/28 07:25:33;;;;;;;3.20;2.42;;;;;;;27.75;20.23;101200.33;1740834;80;21287;-80
2021/04/28 07:28:07;;;;;;;2.77;2.00;;;;;;;27.92;20.22;101191.95;1753601;80;21169;-78
2021/04/28 07:30:40;;;;;;;7.00;2.30;;;;;;;28.03;20.08;101197.95;1714294;81;21320;-78
2021/04/28 07:33:13;;;;;;;4.90;2.08;;;;;;;28.20;19.99;101198.14;1720316;82;21346;-82
2021/04/28 07:35:45;;;;;;;;;;;;;;;28.21;19.71;101197.59;1710965;81;21273;-80
2021/04/28 07:38:18;;;;;;;2.27;2.00;;;;;;;28.43;19.23;101193.34;1688197;83;20208;-79
2021/04/28 07:40:51;;;;;;;;;;;;;;;28.25;18.93;101196.94;1719439;82;21304;-77
2021/04/28 07:43:26;;;;;;;2.75;1.80;;;;;;;28.19;18.14;101189.75;1730054;81;20378;-77
2021/04/28 07:45:58;;;;;;;7.58;2.50;;;;;;;28.18;19.66;101189.48;1728089;81;21759;-78
2021/04/28 07:48:34;;;;;;;7.00;2.30;;;;;;;28.09;20.24;101188.67;1725877;80;21341;-82
2021/04/28 07:51:08;;;;;;;5.45;2.15;;;;;;;27.39;20.16;101192.30;1719945;81;22220;-81
2021/04/28 07:53:41;;;;;;;3.33;1.98;;;;;;;26.05;20.66;101193.69;1730501;81;21291;-84
2021/04/28 07:56:14;;;;;;;3.42;2.67;;;;;;;25.59;21.25;101189.84;1736631;80;22047;-80
2021/04/28 07:58:48;;;;;;;3.12;2.22;;;;;;;25.07;21.74;101189.94;1745847;81;22238;-81
2021/04/28 08:01:21;;;;;;;3.45;2.25;;;;;;;24.50;21.93;101187.84;1675601;82;22618;-75
2021/04/28 08:03:58;;;;;;;4.37;2.08;;;;;;;23.79;22.72;101183.89;1705898;81;21567;-77
2021/04/28 08:06:33;;;;;;;4.70;2.05;;;;;;;23.86;22.25;101191.45;1734963;80;21233;-79
2021/04/28 08:09:09;;;;;;;3.45;2.20;;;;;;;23.90;22.42;101184.67;1724682;80;21295;-76
2021/04/28 08:11:42;;;;;;;2.77;2.05;;;;;;;23.71;22.38;101180.07;1758978;80;21352;-81
2021/04/28 08:14:16;;;;;;;4.17;2.00;;;;;;;23.97;22.35;101178.33;1751422;80;21888;-82
2021/04/28 08:16:48;;;;;;;4.70;1.87;;;;;;;24.60;22.42;101181.55;1706693;82;22972;-80
2021/04/28 08:19:23;;;;;;;3.15;1.98;;;;;;;24.49;22.70;101185.67;1755324;81;21259;-86
2021/04/28 08:21:56;;;;;;;2.90;1.95;;;;;;;23.92;23.08;101182.63;1752671;80;21315;-81
2021/04/28 08:24:30;;;;;;;2.98;1.40;;;;;;;23.15;23.26;101188.66;1743711;79;21676;-82
2021/04/28 08:27:03;;;;;;;;;;;;;;;23.05;22.48;101182.31;1739434;80;21128;-83
2021/04/28 08:29:35;;;;;;;4.22;1.85;;;;;;;23.44;23.16;101180.45;1752994;80;20198;-82
2021/04/28 08:32:09;;;;;;;2.60;1.90;;;;;;;23.94;22.30;101186.75;1757634;81;21355;-79
2021/04/28 08:34:42;;;;;;;2.27;1.90;;;;;;;24.48;21.65;101188.56;1724648;81;21673;-80
2021/04/28 08:37:15;;;;;;;2.40;1.87;;;;;;;25.11;22.05;101191.98;1752892;81;21910;-82
2021/04/28 08:39:51;;;;;;;2.20;1.70;;;;;;;25.66;20.74;101181.26;1757660;80;21798;-80
2021/04/28 08:42:25;;;;;;;3.70;1.60;;;;;;;26.20;20.15;101188.06;1751736;80;21302;-81
2021/04/28 08:44:59;;;;;;;2.50;1.62;;;;;;;26.11;20.45;101184.79;1743630;80;21403;-80
2021/04/28 08:47:35;;;;;;;1.70;1.40;;;;;;;25.51;20.27;101179.34;1745082;80;21168;-80
2021/04/28 08:50:09;;;;;;;1.77;1.45;;;;;;;25.05;20.32;101183.45;1753765;80;21907;-78
2021/04/28 08:52:44;;;;;;;4.42;1.70;;;;;;;24.93;20.43;101187.79;1752462;80;21876;-77
2021/04/28 08:55:20;;;;;;;2.72;1.72;;;;;;;24.97;20.68;101182.31;1744224;80;21292;-76
2021/04/28 08:57:52;;;;;;;;;;;;;;;25.02;20.81;101181.19;1735283;81;21351;-75
2021/04/28 09:00:25;;;;;;;2.33;1.92;;;;;;;25.16;19.74;101183.32;1719528;81;20171;-80
2021/04/28 09:03:00;;;;;;;3.25;1.80;;;;;;;25.04;19.22;101184.47;1741130;81;21264;-79
2021/04/28 09:05:35;;;;;;;3.17;1.70;;;;;;;24.90;19.07;101181.50;1731713;80;21285;-86
2021/04/28 09:08:12;;;;;;;2.37;1.95;;;;;;;24.24;19.73;101181.91;1748468;81;21968;-79
2021/04/28 09:10:47;;;;;;;3.05;1.70;;;;;;;23.20;20.17;101179.55;1729403;81;21408;-80
2021/04/28 09:13:23;;;;;;;2.22;1.77;;;;;;;21.99;21.16;101189.50;1728815;80;21324;-82
2021/04/28 09:15:55;;;;;;;5.58;1.77;;;;;;;21.12;22.62;101191.16;1759558;80;21318;-82
2021/04/28 09:18:39;;;;;;;1.67;1.27;;;;;;;20.45;23.84;101190.20;1735033;78;21271;-83
2021/04/28 09:21:53;;;;;;;4.25;1.80;;;;;;;19.93;24.49;101193.16;1748725;80;21370;-83
2021/04/28 09:24:53;;;;;;;6.37;1.52;;;;;;;19.28;25.69;101192.03;1752111;80;22208;-81
2021/04/28 09:27:45;;;;;;;1.82;1.60;;;;;;;19.03;25.69;101197.07;1747142;80;21321;-85
2021/04/28 09:30:37;;;;;;;2.95;1.90;;;;;;;19.00;25.38;101192.58;1757590;80;22400;-82
2021/04/28 09:33:16;;;;;;;2.35;1.60;;;;;;;18.87;25.21;101194.41;1755422;80;21334;-82
2021/04/28 09:36:00;;;;;;;2.15;1.62;;;;;;;18.64;26.33;101193.42;1742380;80;21758;-82
2021/04/28 09:39:05;;;;;;;2.60;1.52;;;;;;;18.72;25.56;101184.96;1718211;82;21237;-83
2021/04/28 09:41:50;;;;;;;3.60;1.82;;;;;;;19.04;25.41;101193.41;1745782;80;21765;-78
2021/04/28 09:44:29;;;;;;;4.50;1.63;;;;;;;19.41;25.56;101188.39;1718027;82;21287;-75
2021/04/28 09:47:10;;;;;;;2.95;1.55;;;;;;;19.70;25.89;101195.77;1730804;80;21635;-77
2021/04/28 09:50:01;;;;;;;2.27;1.70;;;;;;;19.84;25.79;101196.37;1725678;82;21354;-80
2021/04/28 09:52:42;;;;;;;1.77;1.35;;;;;;;19.86;24.21;101193.03;1740192;80;21287;-77
2021/04/28 09:55:16;;;;;;;1.65;1.40;;;;;;;19.77;24.89;101193.24;1740780;81;21173;-79
2021/04/28 09:57:52;;;;;;;35.90;3.62;;;;;;;19.71;23.65;101186.78;1724101;81;21307;-79
2021/04/28 10:00:30;;;;;;;4.33;1.50;;;;;;;19.51;23.66;101190.86;1725989;80;21248;-76
2021/04/28 10:03:07;;;;;;;6.70;1.80;;;;;;;19.23;23.84;101183.75;1722281;81;21569;-75
2021/04/28 10:05:43;;;;;;;3.70;1.40;;;;;;;18.84;25.65;101194.77;1740663;80;21284;-74
2021/04/28 10:08:26;;;;;;;4.53;1.30;;;;;;;18.45;25.81;101197.69;1704878;80;22266;-77
2021/04/28 10:10:59;;;;;;;2.33;1.37;;;;;;;18.11;25.70;101199.11;1751157;80;21322;-78
2021/04/28 10:13:32;;;;;;;2.40;1.27;;;;;;;17.72;26.49;101197.48;1747451;81;21354;-78
2021/04/28 10:16:08;;;;;;;2.70;1.42;;;;;;;17.47;27.97;101200.98;1709275;81;21212;-80
2021/04/28 10:18:41;;;;;;;1.72;1.12;;;;;;;17.40;27.35;101196.82;1745175;81;21803;-80
2021/04/28 10:21:17;;;;;;;1.62;1.35;;;;;;;17.49;27.28;101195.03;1750482;79;21457;-79
2021/04/28 10:23:51;;;;;;;4.40;1.55;;;;;;;17.57;27.96;101192.47;1751311;80;21386;-80
2021/04/28 10:26:23;;;;;;;;;;;;;;;17.62;26.96;101198.61;1736017;80;21483;-81
2021/04/28 10:28:56;;;;;;;3.75;1.60;;;;;;;17.55;26.01;101188.31;1748783;79;20266;-78
2021/04/28 10:31:29;;;;;;;1.80;1.20;;;;;;;17.37;26.55;101195.80;1727558;80;21307;-82
2021/04/28 10:34:03;;;;;;;5.00;1.40;;;;;;;17.24;25.25;101194.57;1735412;80;21249;-81
2021/04/28 10:36:38;;;;;;;1.75;1.50;;;;;;;17.11;25.40;101194.14;1738704;80;22145;-81
2021/04/28 10:39:11;;;;;;;1.22;1.12;;;;;;;17.03;26.66;101196.75;1713843;80;22248;-79
2021/04/28 10:41:44;;;;;;;3.22;2.20;;;;;;;16.94;27.08;101193.20;1721791;81;21298;-82
2021/04/28 10:44:43;;;;;;;13.60;7.83;;;;;;;16.83;27.38;101192.14;1748173;79;21330;-80
2021/04/28 10:47:23;;;;;;;3.05;1.65;;;;;;;16.81;26.85;101196.23;1734779;81;21390;-82
2021/04/28 10:50:19;;;;;;;1.65;1.12;;;;;;;16.90;27.23;101194.98;1738524;81;21299;-83
2021/04/28 10:53:05;;;;;;;;;;;;;;;16.93;25.78;101196.84;1685625;83;21319;-77
2021/04/28 10:55:58;;;;;;;4.45;2.08;;;;;;;16.96;25.05;101192.55;1679340;83;20304;-78
2021/04/28 10:58:39;;;;;;;1.40;1.00;;;;;;;17.02;25.39;101188.47;1667766;83;21372;-76
2021/04/28 11:01:18;;;;;;;1.60;1.00;;;;;;;17.08;26.35;101193.95;1748313;80;21312;-77
2021/04/28 11:03:58;;;;;;;1.65;1.10;;;;;;;17.15;26.79;101191.03;1749471;80;21328;-79
2021/04/28 11:06:33;;;;;;;1.40;0.90;;;;;;;17.11;27.73;101190.17;1743189;80;21259;-80
2021/04/28 11:09:10;;;;;;;1.60;1.07;;;;;;;17.07;26.64;101188.34;1734810;81;21815;-77
2021/04/28 11:11:46;;;;;;;1.55;1.12;;;;;;;17.05;26.94;101187.64;1726516;81;21320;-80
2021/04/28 11:14:28;;;;;;;2.40;1.15;;;;;;;16.92;27.09;101188.56;1729439;81;21301;-76
2021/04/28 11:17:21;;;;;;;3.98;1.67;;;;;;;16.72;26.90;101185.75;1728827;81;21951;-81
2021/04/28 11:19:55;;;;;;;1.75;1.00;;;;;;;16.54;27.69;101186.27;1739875;81;21196;-77
2021/04/28 11:22:29;;;;;;;0.90;0.90;;;;;;;16.32;27.55;101200.73;1750997;80;21389;-80
2021/04/28 11:25:16;;;;;;;;;;;;;;;16.21;27.66;101198.80;1727010;81;21321;-80
2021/04/28 11:27:59;;;;;;;1.07;0.90;;;;;;;16.16;27.78;101199.25;1721680;80;20313;-83
2021/04/28 11:30:40;;;;;;;1.55;0.98;;;;;;;16.04;27.57;101199.95;1716344;81;21369;-80
2021/04/28 11:33:33;;;;;;;1.05;0.90;;;;;;;15.97;27.07;101196.23;1692905;83;21364;-82
2021/04/28 11:36:09;;;;;;;3.08;1.30;;;;;;;15.93;26.92;101187.44;1743905;81;21698;-75
2021/04/28 11:38:45;;;;;;;0.98;0.90;;;;;;;15.90;26.41;101189.89;1732993;81;21870;-78
2021/04/28 11:41:25;;;;;;;2.25;1.22;;;;;;;15.73;24.96;101181.91;1733552;81;21220;-77
2021/04/28 11:44:01;;;;;;;2.20;1.25;;;;;;;15.52;25.77;101180.84;1744799;81;21221;-80
2021/04/28 11:46:33;;;;;;;7.72;1.65;;;;;;;15.33;26.33;101176.92;1663392;84;21338;-78
2021/04/28 11:49:07;;;;;;;1.50;1.00;;;;;;;15.23;26.75;101174.31;1663406;83;21411;-74
2021/04/28 11:51:40;;;;;;;1.90;1.10;;;;;;;15.17;26.19;101177.50;1696947;83;21317;-79
2021/04/28 11:54:13;;;;;;;2.73;1.83;;;;;;;15.10;26.06;101182.17;1702153;82;21936;-79
2021/04/28 11:56:47;;;;;;;3.08;1.30;;;;;;;15.10;26.35;101176.89;1685430;83;21394;-78
2021/04/28 11:59:28;;;;;;;1.50;1.32;;;;;;;15.10;26.72;101176.41;1683808;83;21353;-76
2021/04/28 12:02:09;;;;;;;1.57;1.00;;;;;;;15.16;28.19;101174.55;1678182;83;21243;-76
2021/04/28 12:04:50;;;;;;;3.30;1.02;;;;;;;15.28;28.45;101179.16;1732351;81;21323;-78
2021/04/28 12:07:20;;;;;;;1.05;0.90;;;;;;;15.37;27.52;101177.80;1739473;81;21355;-78
2021/04/28 12:09:55;;;;;;;1.67;0.80;;;;;;;15.35;26.61;101178.44;1727302;81;21331;-77
2021/04/28 12:12:33;;;;;;;3.17;0.90;;;;;;;15.29;25.69;101175.04;1737944;80;21347;-78
2021/04/28 12:15:12;;;;;;;2.55;1.00;;;;;;;15.17;25.31;101174.03;1709139;81;21348;-79
2021/04/28 12:17:53;;;;;;;2.50;0.90;;;;;;;15.08;25.55;101173.58;1746322;81;21268;-77
2021/04/28 12:20:25;;;;;;;4.58;1.12;;;;;;;15.00;26.06;101178.23;1715609;81;21352;-75